Greenville, Florida
Current Conditions -  °F | °C
As of 6:35 AM on Wednesday 26 Nov 2014 (Local Time) from K40J Reporting Station
Overcast Overcast  
Wind Chill: 46°   Ceiling: 900
Heat Index: 48°   Visibility: 10mi
Dew Point: 47°   Wind: 6mph
Humidity: 96%   Direction: 320°NW
Pressure: 30.08"   Gusts: NA
Location:  30.47°N, 83.63°W
Report Text: K40J 261135Z AUTO 32005KT 10SM BKN009 OVC012 09/08 A3008 RMK AO2 T00900084
Loading
Personal Weather Stations






























Interactive Weather Map New forecast layout! Learn more

10-Day Weather Forecast

Advertisements
Track Severe Weather on mobile